createdAt,value
2022-11-08T00:02:13.338Z,8.50
2022-11-08T00:04:39.986Z,8.50
2022-11-08T00:07:25.062Z,8.40
2022-11-08T00:10:10.009Z,8.40
2022-11-08T00:12:55.136Z,8.40
2022-11-08T00:15:21.737Z,8.30
2022-11-08T00:17:48.363Z,8.30
2022-11-08T00:20:15.027Z,8.20
2022-11-08T00:22:41.632Z,8.10
2022-11-08T00:25:08.616Z,8.10
2022-11-08T00:27:35.168Z,8.10
2022-11-08T00:30:01.738Z,8.10
2022-11-08T00:32:28.379Z,8.00
2022-11-08T00:34:54.955Z,7.90
2022-11-08T00:37:22.213Z,7.90
2022-11-08T00:39:48.776Z,7.80
2022-11-08T00:42:15.363Z,7.80
2022-11-08T00:44:42.004Z,7.80
2022-11-08T00:47:08.625Z,7.70
2022-11-08T00:49:35.326Z,7.70
2022-11-08T00:52:01.915Z,7.70
2022-11-08T00:54:28.451Z,7.60
2022-11-08T00:56:55.072Z,7.60
2022-11-08T00:59:21.639Z,7.60
2022-11-08T01:01:48.473Z,7.60
2022-11-08T01:04:17.390Z,7.70
2022-11-08T01:06:44.383Z,7.60
2022-11-08T01:09:11.329Z,7.60
2022-11-08T01:11:38.302Z,7.50
2022-11-08T01:14:04.889Z,7.50
2022-11-08T01:16:32.580Z,7.50
2022-11-08T01:18:59.515Z,7.50
2022-11-08T01:21:26.765Z,7.50
2022-11-08T01:23:56.697Z,7.40
2022-11-08T01:26:24.843Z,7.30
2022-11-08T01:28:51.449Z,7.30
2022-11-08T01:31:19.393Z,7.30
2022-11-08T01:33:51.051Z,7.30
2022-11-08T01:36:18.897Z,7.20
2022-11-08T01:38:45.456Z,7.20
2022-11-08T01:41:13.555Z,7.20
2022-11-08T01:43:44.099Z,7.20
2022-11-08T01:46:16.681Z,7.20
2022-11-08T01:48:52.358Z,7.10
2022-11-08T01:51:20.842Z,7.10
2022-11-08T01:53:47.561Z,7.10
2022-11-08T01:56:14.479Z,7.00
2022-11-08T01:58:42.377Z,7.00
2022-11-08T02:01:09.779Z,7.00
2022-11-08T02:03:36.474Z,7.00
2022-11-08T02:06:03.691Z,7.00
2022-11-08T02:08:37.562Z,7.00
2022-11-08T02:11:05.072Z,7.10
2022-11-08T02:13:32.610Z,7.20
2022-11-08T02:15:59.358Z,7.20
2022-11-08T02:18:30.134Z,7.20
2022-11-08T02:21:02.970Z,7.20
2022-11-08T02:23:32.248Z,7.20
2022-11-08T02:25:58.797Z,7.30
2022-11-08T02:28:25.317Z,7.30
2022-11-08T02:30:51.933Z,7.30
2022-11-08T02:33:19.590Z,7.40
2022-11-08T02:35:48.269Z,7.40
2022-11-08T02:38:15.076Z,7.50
2022-11-08T02:40:52.038Z,7.50
2022-11-08T02:43:18.639Z,7.50
2022-11-08T02:45:45.541Z,7.50
2022-11-08T02:48:12.858Z,7.60
2022-11-08T02:50:39.668Z,7.60
2022-11-08T02:53:06.306Z,7.60
2022-11-08T02:55:33.373Z,7.60
2022-11-08T02:58:00.200Z,7.60
2022-11-08T03:00:27.071Z,7.50
2022-11-08T03:02:57.503Z,7.50
2022-11-08T03:05:24.553Z,7.50
2022-11-08T03:07:51.176Z,7.50
2022-11-08T03:10:17.966Z,7.50
2022-11-08T03:12:44.512Z,7.50
2022-11-08T03:15:12.123Z,7.50
2022-11-08T03:17:39.035Z,7.50
2022-11-08T03:20:05.866Z,7.50
2022-11-08T03:22:32.443Z,7.50
2022-11-08T03:24:59.085Z,7.50
2022-11-08T03:27:25.650Z,7.40
2022-11-08T03:29:52.191Z,7.50
2022-11-08T03:32:18.948Z,7.40
2022-11-08T03:34:45.477Z,7.40
2022-11-08T03:37:12.032Z,7.40
2022-11-08T03:39:38.571Z,7.40
2022-11-08T03:42:05.390Z,7.30
2022-11-08T03:44:32.367Z,7.30
2022-11-08T03:46:59.339Z,7.20
2022-11-08T03:49:26.707Z,7.30
2022-11-08T03:51:54.048Z,7.20
2022-11-08T03:54:20.615Z,7.30
2022-11-08T03:56:47.569Z,7.30
2022-11-08T03:59:14.144Z,7.30
2022-11-08T04:01:40.912Z,7.30
2022-11-08T04:04:07.573Z,7.30
2022-11-08T04:06:34.140Z,7.20
2022-11-08T04:09:00.684Z,7.20
2022-11-08T04:11:45.822Z,7.20
2022-11-08T04:14:31.092Z,7.20
2022-11-08T04:16:57.609Z,7.10
2022-11-08T04:19:42.751Z,7.10
2022-11-08T04:22:10.834Z,7.20
2022-11-08T04:24:37.604Z,7.20
2022-11-08T04:27:04.235Z,7.10
2022-11-08T04:29:30.853Z,7.10
2022-11-08T04:31:57.571Z,7.10
2022-11-08T04:34:24.081Z,7.00
2022-11-08T04:36:50.631Z,7.00
2022-11-08T04:39:17.424Z,7.00
2022-11-08T04:41:43.989Z,6.90
2022-11-08T04:44:11.707Z,7.00
2022-11-08T04:46:38.267Z,6.90
2022-11-08T04:49:04.888Z,6.90
2022-11-08T04:51:32.294Z,7.00
2022-11-08T04:54:00.210Z,6.90
2022-11-08T04:56:28.002Z,6.90
2022-11-08T04:58:55.714Z,6.90
2022-11-08T05:01:23.652Z,6.80
2022-11-08T05:03:50.870Z,6.80
2022-11-08T05:06:19.070Z,6.80
2022-11-08T05:08:45.929Z,6.80
2022-11-08T05:11:14.028Z,6.80
2022-11-08T05:13:40.897Z,6.80
2022-11-08T05:16:15.016Z,6.80
2022-11-08T05:18:42.138Z,6.80
2022-11-08T05:21:28.771Z,6.80
2022-11-08T05:23:55.306Z,6.80
2022-11-08T05:26:21.943Z,6.80
2022-11-08T05:28:48.537Z,6.80
2022-11-08T05:31:15.535Z,6.70
2022-11-08T05:33:42.169Z,6.70
2022-11-08T05:36:12.717Z,6.70
2022-11-08T05:38:39.718Z,6.70
2022-11-08T05:41:13.587Z,6.70
2022-11-08T05:43:40.165Z,6.70
2022-11-08T05:46:07.179Z,6.70
2022-11-08T05:48:34.164Z,6.70
2022-11-08T05:51:01.145Z,6.70
2022-11-08T05:53:28.035Z,6.70
2022-11-08T05:56:01.402Z,6.60
2022-11-08T05:58:28.102Z,6.60
2022-11-08T06:01:04.632Z,6.60
2022-11-08T06:03:31.781Z,6.60
2022-11-08T06:06:05.680Z,6.60
2022-11-08T06:08:32.260Z,6.60
2022-11-08T06:11:02.474Z,6.50
2022-11-08T06:13:29.392Z,6.50
2022-11-08T06:15:59.203Z,6.50
2022-11-08T06:18:25.747Z,6.50
2022-11-08T06:20:52.281Z,6.50
2022-11-08T06:23:19.146Z,6.50
2022-11-08T06:25:47.652Z,6.50
2022-11-08T06:28:14.757Z,6.50
2022-11-08T06:30:41.433Z,6.50
2022-11-08T06:33:08.117Z,6.50
2022-11-08T06:35:36.089Z,6.50
2022-11-08T06:38:08.173Z,6.50
2022-11-08T06:40:36.966Z,6.60
2022-11-08T06:43:03.549Z,6.50
2022-11-08T06:45:30.121Z,6.60
2022-11-08T06:47:58.111Z,6.60
2022-11-08T06:50:24.795Z,6.60
2022-11-08T06:53:07.697Z,6.60
2022-11-08T06:55:34.949Z,6.70
2022-11-08T06:58:01.996Z,6.80
2022-11-08T07:00:28.891Z,6.80
2022-11-08T07:02:56.466Z,6.80
2022-11-08T07:05:23.504Z,6.90
2022-11-08T07:07:52.372Z,7.10
2022-11-08T07:10:19.485Z,7.00
2022-11-08T07:12:46.302Z,7.30
2022-11-08T07:15:13.354Z,7.40
2022-11-08T07:17:39.870Z,7.50
2022-11-08T07:20:06.928Z,7.70
2022-11-08T07:22:33.469Z,7.80
2022-11-08T07:25:00.190Z,7.90
2022-11-08T07:27:27.354Z,7.90
2022-11-08T07:29:53.865Z,8.10
2022-11-08T07:32:20.409Z,8.40
2022-11-08T07:34:46.967Z,8.70
2022-11-08T07:37:13.485Z,9.10
2022-11-08T07:39:40.024Z,9.40
2022-11-08T07:42:06.598Z,10.30
2022-11-08T07:44:33.123Z,10.30
2022-11-08T07:46:59.621Z,10.50
2022-11-08T07:49:26.145Z,10.30
2022-11-08T07:51:52.708Z,11.00
2022-11-08T07:54:22.322Z,11.40
2022-11-08T07:56:48.961Z,11.90
2022-11-08T07:59:18.919Z,12.30
2022-11-08T08:01:45.522Z,12.70
2022-11-08T08:04:12.614Z,13.00
2022-11-08T08:06:39.206Z,13.00
2022-11-08T08:09:05.831Z,12.90
2022-11-08T08:11:33.902Z,13.00
2022-11-08T08:14:00.660Z,13.30
2022-11-08T08:16:27.181Z,13.70
2022-11-08T08:18:56.643Z,14.30
2022-11-08T08:21:23.577Z,14.50
2022-11-08T08:23:50.131Z,14.60
2022-11-08T08:26:17.323Z,15.10
2022-11-08T08:28:43.868Z,15.60
2022-11-08T08:31:10.406Z,16.00
2022-11-08T08:33:37.843Z,16.20
2022-11-08T08:36:04.952Z,16.50
2022-11-08T08:38:32.574Z,16.70
2022-11-08T08:40:59.471Z,16.70
2022-11-08T08:43:27.611Z,16.80
2022-11-08T08:45:54.561Z,17.00
2022-11-08T08:48:21.133Z,16.70
2022-11-08T08:50:48.199Z,16.20
2022-11-08T08:53:14.849Z,15.70
2022-11-08T08:55:42.764Z,15.20
2022-11-08T08:58:09.651Z,14.50
2022-11-08T09:03:22.895Z,14.50
2022-11-08T09:05:49.438Z,14.40
2022-11-08T09:08:15.998Z,14.80
2022-11-08T09:10:43.180Z,15.80
2022-11-08T09:13:09.797Z,16.70
2022-11-08T09:15:36.489Z,16.70
2022-11-08T09:18:03.226Z,16.50
2022-11-08T09:20:29.840Z,15.90
2022-11-08T09:23:00.926Z,15.60
2022-11-08T09:25:27.460Z,15.30
2022-11-08T09:27:54.585Z,14.90
2022-11-08T09:30:21.206Z,14.40
2022-11-08T09:33:00.407Z,14.10
2022-11-08T09:35:27.686Z,14.40
2022-11-08T09:37:54.439Z,15.70
2022-11-08T09:40:23.659Z,17.60
2022-11-08T09:42:57.321Z,18.80
2022-11-08T09:45:26.023Z,19.60
2022-11-08T09:48:04.842Z,21.20
2022-11-08T09:50:35.391Z,21.60
2022-11-08T09:53:20.799Z,21.10
2022-11-08T09:55:52.647Z,20.40
2022-11-08T09:58:28.194Z,21.20
2022-11-08T10:00:54.812Z,21.60
2022-11-08T10:03:23.369Z,22.10
2022-11-08T10:05:59.025Z,20.80
2022-11-08T10:08:28.510Z,21.60
2022-11-08T10:11:07.325Z,21.70
2022-11-08T10:14:00.571Z,21.60
2022-11-08T10:16:37.563Z,21.60
2022-11-08T10:19:23.178Z,21.60
2022-11-08T10:21:58.723Z,21.80
2022-11-08T10:24:54.439Z,21.80
2022-11-08T10:27:30.279Z,22.20
2022-11-08T10:30:00.097Z,22.00
2022-11-08T10:32:29.132Z,21.50
2022-11-08T10:34:58.860Z,21.10
2022-11-08T10:37:25.971Z,20.70
2022-11-08T10:40:01.986Z,20.60
2022-11-08T10:42:41.745Z,21.10
2022-11-08T10:45:09.537Z,22.40
2022-11-08T10:47:36.849Z,22.30
2022-11-08T10:50:17.882Z,21.90
2022-11-08T10:52:46.775Z,21.40
2022-11-08T10:55:27.078Z,20.40
2022-11-08T10:57:53.658Z,20.20
2022-11-08T11:00:20.271Z,21.30
2022-11-08T11:02:49.832Z,21.90
2022-11-08T11:05:16.415Z,22.40
2022-11-08T11:07:46.928Z,22.90
2022-11-08T11:10:24.865Z,23.50
2022-11-08T11:12:59.798Z,23.50
2022-11-08T11:15:35.484Z,23.70
2022-11-08T11:18:02.652Z,23.80
2022-11-08T11:20:29.445Z,24.10
2022-11-08T11:22:57.451Z,24.20
2022-11-08T11:25:24.102Z,24.00
2022-11-08T11:27:58.346Z,24.00
2022-11-08T11:30:29.199Z,23.90
2022-11-08T11:33:18.845Z,23.90
2022-11-08T11:36:13.329Z,24.90
2022-11-08T11:38:46.326Z,25.30
2022-11-08T11:41:15.561Z,25.30
2022-11-08T11:43:45.113Z,25.60
2022-11-08T11:46:11.623Z,25.20
2022-11-08T11:48:56.995Z,24.90
2022-11-08T11:51:25.965Z,24.20
2022-11-08T11:53:52.536Z,24.50
2022-11-08T11:56:41.322Z,25.20
2022-11-08T11:59:17.728Z,25.50
2022-11-08T12:01:44.299Z,25.40
2022-11-08T12:04:29.746Z,25.80
2022-11-08T12:07:09.237Z,24.90
2022-11-08T12:09:47.525Z,24.70
2022-11-08T12:12:32.867Z,24.00
2022-11-08T12:15:07.697Z,23.40
2022-11-08T12:17:51.052Z,22.90
2022-11-08T12:20:36.012Z,22.70
2022-11-08T12:23:02.563Z,23.20
2022-11-08T12:25:32.669Z,22.40
2022-11-08T12:28:19.968Z,21.70
2022-11-08T12:30:50.450Z,21.00
2022-11-08T12:33:25.090Z,20.80
2022-11-08T12:36:03.143Z,20.40
2022-11-08T12:38:32.486Z,20.10
2022-11-08T12:41:08.958Z,19.80
2022-11-08T12:43:38.329Z,19.60
2022-11-08T12:46:18.099Z,19.80
2022-11-08T12:48:50.761Z,20.00
2022-11-08T12:51:32.800Z,20.00
2022-11-08T12:54:10.514Z,19.90
2022-11-08T12:56:39.297Z,19.70
2022-11-08T12:59:12.145Z,19.60
2022-11-08T13:01:38.887Z,19.50
2022-11-08T13:04:23.989Z,19.30
2022-11-08T13:07:22.756Z,19.20
2022-11-08T13:09:55.166Z,18.90
2022-11-08T13:12:26.181Z,19.40
2022-11-08T13:14:52.794Z,19.80
2022-11-08T13:17:22.814Z,19.20
2022-11-08T13:19:52.481Z,18.80
2022-11-08T13:22:47.608Z,18.50
2022-11-08T13:25:33.002Z,18.30
2022-11-08T13:27:59.559Z,17.90
2022-11-08T13:30:26.127Z,17.80
2022-11-08T13:33:06.822Z,17.70
2022-11-08T13:35:48.770Z,18.00
2022-11-08T13:38:19.710Z,17.90
2022-11-08T13:41:05.284Z,17.90
2022-11-08T13:43:32.911Z,17.70
2022-11-08T13:46:18.295Z,17.60
2022-11-08T13:49:03.565Z,17.50
2022-11-08T13:51:37.384Z,17.50
2022-11-08T13:54:22.308Z,17.70
2022-11-08T13:56:52.017Z,17.90
2022-11-08T13:59:31.058Z,18.00
2022-11-08T14:01:57.736Z,18.30
2022-11-08T14:04:25.839Z,18.40
2022-11-08T14:06:59.283Z,18.40
2022-11-08T14:09:29.302Z,18.10
2022-11-08T14:12:05.872Z,18.00
2022-11-08T14:14:42.157Z,18.00
2022-11-08T14:17:27.613Z,17.70
2022-11-08T14:19:56.047Z,17.30
2022-11-08T14:22:24.677Z,17.20
2022-11-08T14:24:52.781Z,17.00
2022-11-08T14:27:33.647Z,16.90
2022-11-08T14:30:00.343Z,16.80
2022-11-08T14:32:27.035Z,16.80
2022-11-08T14:35:09.746Z,16.60
2022-11-08T14:37:37.116Z,16.60
2022-11-08T14:40:04.369Z,16.50
2022-11-08T14:42:32.057Z,16.50
2022-11-08T14:44:58.829Z,16.40
2022-11-08T14:47:27.148Z,16.30
2022-11-08T14:49:53.712Z,16.20
2022-11-08T14:52:25.811Z,16.20
2022-11-08T14:55:03.616Z,16.10
2022-11-08T14:57:35.492Z,15.90
2022-11-08T15:00:05.453Z,15.80
2022-11-08T15:02:32.465Z,15.70
2022-11-08T15:04:59.294Z,15.70
2022-11-08T15:07:26.192Z,15.60
2022-11-08T15:09:53.298Z,15.50
2022-11-08T15:12:24.267Z,15.40
2022-11-08T15:14:53.444Z,15.30
2022-11-08T15:17:36.785Z,15.20
2022-11-08T15:20:06.990Z,15.20
2022-11-08T15:22:34.739Z,15.10
2022-11-08T15:25:02.450Z,15.00
2022-11-08T15:27:29.320Z,15.20
2022-11-08T15:30:09.102Z,14.80
2022-11-08T15:32:37.545Z,14.80
2022-11-08T15:35:05.039Z,14.70
2022-11-08T15:37:39.130Z,14.70
2022-11-08T15:40:07.305Z,14.60
2022-11-08T15:42:34.736Z,14.50
2022-11-08T15:45:01.383Z,14.50
2022-11-08T15:47:37.103Z,14.40
2022-11-08T15:50:12.391Z,14.30
2022-11-08T15:52:38.911Z,14.30
2022-11-08T15:55:05.665Z,14.20
2022-11-08T15:57:32.274Z,14.20
2022-11-08T15:59:58.791Z,14.10
2022-11-08T16:02:25.364Z,14.00
2022-11-08T16:04:51.908Z,14.00
2022-11-08T16:07:18.508Z,14.00
2022-11-08T16:09:45.119Z,13.90
2022-11-08T16:12:14.237Z,13.90
2022-11-08T16:14:41.097Z,13.80
2022-11-08T16:17:12.688Z,13.90
2022-11-08T16:19:39.232Z,13.80
2022-11-08T16:22:07.434Z,13.70
2022-11-08T16:24:34.006Z,13.60
2022-11-08T16:27:01.251Z,13.60
2022-11-08T16:29:29.221Z,13.60
2022-11-08T16:31:55.817Z,13.50
2022-11-08T16:34:22.404Z,13.40
2022-11-08T16:36:49.315Z,13.40
2022-11-08T16:39:17.166Z,13.30
2022-11-08T16:41:43.739Z,13.30
2022-11-08T16:44:10.374Z,13.30
2022-11-08T16:46:37.491Z,13.20
2022-11-08T16:49:04.860Z,13.20
2022-11-08T16:51:31.782Z,13.20
2022-11-08T16:53:58.336Z,13.10
2022-11-08T16:56:24.862Z,13.00
2022-11-08T16:58:51.490Z,13.00
2022-11-08T17:01:20.811Z,13.00
2022-11-08T17:03:47.596Z,13.00
2022-11-08T17:06:16.439Z,13.00
2022-11-08T17:08:43.577Z,12.90
2022-11-08T17:11:15.090Z,12.80
2022-11-08T17:13:41.643Z,12.90
2022-11-08T17:16:11.500Z,12.90
2022-11-08T17:18:38.465Z,12.90
2022-11-08T17:21:42.549Z,12.90
2022-11-08T17:23:59.012Z,12.90
2022-11-08T17:26:25.601Z,12.80
2022-11-08T17:28:54.867Z,12.80
2022-11-08T17:31:21.423Z,12.80
2022-11-08T17:33:48.262Z,12.30
2022-11-08T17:36:14.817Z,12.70
2022-11-08T17:38:41.817Z,12.60
2022-11-08T17:41:12.511Z,12.60
2022-11-08T17:43:39.522Z,12.50
2022-11-08T17:46:06.402Z,12.50
2022-11-08T17:48:33.477Z,12.50
2022-11-08T17:51:00.426Z,12.50
2022-11-08T17:53:27.329Z,12.40
2022-11-08T17:55:57.921Z,12.40
2022-11-08T17:58:25.929Z,12.40
2022-11-08T18:00:53.415Z,12.40
2022-11-08T18:03:20.840Z,12.40
2022-11-08T18:05:57.802Z,12.30
2022-11-08T18:08:27.144Z,12.30
2022-11-08T18:10:55.497Z,12.30
2022-11-08T18:13:22.978Z,12.20
2022-11-08T18:15:49.851Z,12.10
2022-11-08T18:18:16.864Z,12.10
2022-11-08T18:20:43.577Z,12.00
2022-11-08T18:23:12.966Z,12.00
2022-11-08T18:25:39.606Z,11.90
2022-11-08T18:28:06.245Z,11.90
2022-11-08T18:30:33.086Z,11.90
2022-11-08T18:32:59.638Z,11.80
2022-11-08T18:35:28.157Z,11.80
2022-11-08T18:37:55.583Z,11.80
2022-11-08T18:40:22.533Z,11.70
2022-11-08T18:42:49.081Z,11.70
2022-11-08T18:45:15.697Z,11.70
2022-11-08T18:47:42.262Z,11.60
2022-11-08T18:50:09.631Z,11.60
2022-11-08T18:52:36.868Z,11.60
2022-11-08T18:55:04.502Z,11.60
2022-11-08T18:57:31.063Z,11.50
2022-11-08T19:00:01.020Z,11.60
2022-11-08T19:02:27.895Z,11.50
2022-11-08T19:04:54.483Z,11.40
2022-11-08T19:07:21.071Z,11.50
2022-11-08T19:09:47.662Z,11.40
2022-11-08T19:12:14.247Z,11.40
2022-11-08T19:14:40.846Z,11.30
2022-11-08T19:17:07.395Z,11.30
2022-11-08T19:19:34.103Z,11.30
2022-11-08T19:22:00.727Z,11.30
2022-11-08T19:24:27.326Z,11.30
2022-11-08T19:26:53.868Z,11.20
2022-11-08T19:29:20.824Z,11.10
2022-11-08T19:31:47.550Z,11.10
2022-11-08T19:34:14.250Z,11.10
2022-11-08T19:36:43.544Z,11.10
2022-11-08T19:39:13.509Z,11.10
2022-11-08T19:41:40.222Z,11.10
2022-11-08T19:44:07.140Z,11.10
2022-11-08T19:46:34.131Z,11.00
2022-11-08T19:49:02.196Z,11.00
2022-11-08T19:51:29.756Z,11.00
2022-11-08T19:53:57.429Z,11.00
2022-11-08T19:56:38.074Z,11.00
2022-11-08T19:59:11.054Z,11.00
2022-11-08T20:01:39.895Z,11.10
2022-11-08T20:04:08.026Z,11.00
2022-11-08T20:06:35.032Z,11.00
2022-11-08T20:09:02.038Z,11.00
2022-11-08T20:11:29.899Z,11.00
2022-11-08T20:13:56.904Z,11.10
2022-11-08T20:16:26.615Z,11.00
2022-11-08T20:18:53.978Z,11.00
2022-11-08T20:21:20.890Z,11.00
2022-11-08T20:23:47.881Z,11.00
2022-11-08T20:26:16.454Z,10.90
2022-11-08T20:28:55.181Z,10.90
2022-11-08T20:31:23.141Z,10.90
2022-11-08T20:33:50.542Z,10.90
2022-11-08T20:36:18.009Z,10.80
2022-11-08T20:38:44.857Z,10.80
2022-11-08T20:41:13.322Z,10.80
2022-11-08T20:43:43.574Z,10.90
2022-11-08T20:46:17.264Z,10.80
2022-11-08T20:48:44.334Z,10.80
2022-11-08T20:51:12.410Z,10.80
2022-11-08T20:53:39.450Z,10.70
2022-11-08T20:56:07.672Z,10.80
2022-11-08T20:58:34.962Z,10.80
2022-11-08T21:01:02.190Z,10.70
2022-11-08T21:03:29.108Z,11.00
2022-11-08T21:06:02.830Z,10.70
2022-11-08T21:08:58.497Z,10.70
2022-11-08T21:11:16.814Z,10.70
2022-11-08T21:13:44.102Z,10.60
2022-11-08T21:16:28.711Z,10.60
2022-11-08T21:18:57.457Z,10.60
2022-11-08T21:21:24.463Z,10.60
2022-11-08T21:23:51.346Z,10.60
2022-11-08T21:26:19.078Z,10.60
2022-11-08T21:28:46.140Z,10.50
2022-11-08T21:31:13.074Z,10.50
2022-11-08T21:33:39.598Z,10.50
2022-11-08T21:36:06.254Z,10.50
2022-11-08T21:38:35.211Z,10.40
2022-11-08T21:41:05.800Z,10.40
2022-11-08T21:43:39.635Z,10.30
2022-11-08T21:46:19.934Z,10.30
2022-11-08T21:48:47.455Z,10.30
2022-11-08T21:51:14.531Z,10.30
2022-11-08T21:53:49.645Z,10.30
2022-11-08T21:56:20.788Z,10.30
2022-11-08T21:58:47.347Z,10.20
2022-11-08T22:01:14.004Z,10.10
2022-11-08T22:03:40.570Z,10.40
2022-11-08T22:06:07.244Z,10.10
2022-11-08T22:08:33.874Z,10.20
2022-11-08T22:11:00.380Z,10.20
2022-11-08T22:13:27.709Z,10.20
2022-11-08T22:15:54.267Z,10.20
2022-11-08T22:18:31.120Z,10.20
2022-11-08T22:21:26.295Z,10.20
2022-11-08T22:23:52.851Z,10.20
2022-11-08T22:26:19.364Z,10.20
2022-11-08T22:28:45.930Z,10.20
2022-11-08T22:31:12.462Z,10.20
2022-11-08T22:33:39.001Z,10.20
2022-11-08T22:36:05.662Z,10.20
2022-11-08T22:38:32.229Z,10.20
2022-11-08T22:40:58.771Z,10.20
2022-11-08T22:43:25.317Z,10.30
2022-11-08T22:45:51.906Z,10.30
2022-11-08T22:48:18.838Z,10.30
2022-11-08T22:50:45.730Z,10.30
2022-11-08T22:53:12.252Z,10.30
2022-11-08T22:55:38.804Z,10.30
2022-11-08T22:58:05.453Z,10.30
2022-11-08T23:00:31.947Z,10.30
2022-11-08T23:02:58.506Z,10.40
2022-11-08T23:05:25.049Z,10.30
2022-11-08T23:07:51.620Z,10.30
2022-11-08T23:10:18.190Z,10.40
2022-11-08T23:13:03.610Z,10.40
2022-11-08T23:15:51.770Z,10.40
2022-11-08T23:18:18.705Z,10.40
2022-11-08T23:21:04.045Z,10.40
2022-11-08T23:24:02.577Z,10.40
2022-11-08T23:26:47.790Z,10.40
2022-11-08T23:29:33.204Z,10.40
2022-11-08T23:31:59.739Z,10.40
2022-11-08T23:34:26.284Z,10.40
2022-11-08T23:36:53.395Z,10.40
2022-11-08T23:39:19.960Z,10.40
2022-11-08T23:42:05.086Z,10.40
2022-11-08T23:44:31.666Z,10.30
2022-11-08T23:46:59.487Z,10.40
2022-11-08T23:49:26.093Z,10.40
2022-11-08T23:51:52.925Z,10.30
2022-11-08T23:54:19.611Z,10.40
2022-11-08T23:56:46.487Z,10.40
2022-11-08T23:59:14.090Z,10.40
